sensor_id;sensor_type;location;lat;lon;timestamp;P1;durP1;ratioP1;P2;durP2;ratioP2
24335;SDS011;33098;52.400;16.880;2023-06-19T00:02:25;10.30;;;9.30;;
24335;SDS011;33098;52.400;16.880;2023-06-19T00:04:52;10.30;;;8.50;;
24335;SDS011;33098;52.400;16.880;2023-06-19T00:07:18;10.20;;;8.70;;
24335;SDS011;33098;52.400;16.880;2023-06-19T00:09:47;10.60;;;9.00;;
24335;SDS011;33098;52.400;16.880;2023-06-19T00:12:13;9.20;;;8.20;;
24335;SDS011;33098;52.400;16.880;2023-06-19T00:14:40;9.70;;;8.70;;
24335;SDS011;33098;52.400;16.880;2023-06-19T00:17:06;9.90;;;8.90;;
24335;SDS011;33098;52.400;16.880;2023-06-19T00:19:33;9.80;;;8.70;;
24335;SDS011;33098;52.400;16.880;2023-06-19T00:22:03;10.40;;;9.30;;
24335;SDS011;33098;52.400;16.880;2023-06-19T00:24:30;10.30;;;9.10;;
24335;SDS011;33098;52.400;16.880;2023-06-19T00:26:56;9.70;;;8.80;;
24335;SDS011;33098;52.400;16.880;2023-06-19T00:29:29;10.00;;;9.00;;
24335;SDS011;33098;52.400;16.880;2023-06-19T00:31:57;10.10;;;9.00;;
24335;SDS011;33098;52.400;16.880;2023-06-19T00:34:23;10.20;;;9.20;;
24335;SDS011;33098;52.400;16.880;2023-06-19T00:36:50;12.10;;;9.20;;
24335;SDS011;33098;52.400;16.880;2023-06-19T00:39:22;11.70;;;8.80;;
24335;SDS011;33098;52.400;16.880;2023-06-19T00:41:51;10.00;;;9.00;;
24335;SDS011;33098;52.400;16.880;2023-06-19T00:44:18;11.40;;;10.10;;
24335;SDS011;33098;52.400;16.880;2023-06-19T00:46:46;10.30;;;9.30;;
24335;SDS011;33098;52.400;16.880;2023-06-19T00:49:13;10.20;;;9.10;;
24335;SDS011;33098;52.400;16.880;2023-06-19T00:51:41;10.30;;;8.90;;
24335;SDS011;33098;52.400;16.880;2023-06-19T00:54:08;10.40;;;9.20;;
24335;SDS011;33098;52.400;16.880;2023-06-19T00:56:36;12.00;;;9.60;;
24335;SDS011;33098;52.400;16.880;2023-06-19T00:59:05;10.80;;;9.60;;
24335;SDS011;33098;52.400;16.880;2023-06-19T01:04:00;12.20;;;9.00;;
24335;SDS011;33098;52.400;16.880;2023-06-19T01:06:27;10.70;;;9.40;;
24335;SDS011;33098;52.400;16.880;2023-06-19T01:09:05;10.60;;;8.90;;
24335;SDS011;33098;52.400;16.880;2023-06-19T01:11:39;10.90;;;9.40;;
24335;SDS011;33098;52.400;16.880;2023-06-19T01:14:15;10.20;;;9.20;;
24335;SDS011;33098;52.400;16.880;2023-06-19T01:16:46;10.40;;;9.10;;
24335;SDS011;33098;52.400;16.880;2023-06-19T01:19:16;10.50;;;9.40;;
24335;SDS011;33098;52.400;16.880;2023-06-19T01:21:47;10.60;;;9.50;;
24335;SDS011;33098;52.400;16.880;2023-06-19T01:24:14;10.40;;;8.90;;
24335;SDS011;33098;52.400;16.880;2023-06-19T01:26:41;10.30;;;9.00;;
24335;SDS011;33098;52.400;16.880;2023-06-19T01:29:12;10.20;;;9.00;;
24335;SDS011;33098;52.400;16.880;2023-06-19T01:34:30;9.70;;;8.70;;
24335;SDS011;33098;52.400;16.880;2023-06-19T01:36:57;9.70;;;8.60;;
24335;SDS011;33098;52.400;16.880;2023-06-19T01:39:25;10.40;;;9.30;;
24335;SDS011;33098;52.400;16.880;2023-06-19T01:41:53;9.90;;;8.90;;
24335;SDS011;33098;52.400;16.880;2023-06-19T01:44:21;12.20;;;9.50;;
24335;SDS011;33098;52.400;16.880;2023-06-19T01:46:48;10.90;;;9.30;;
24335;SDS011;33098;52.400;16.880;2023-06-19T01:49:16;11.40;;;9.50;;
24335;SDS011;33098;52.400;16.880;2023-06-19T01:51:46;10.50;;;9.40;;
24335;SDS011;33098;52.400;16.880;2023-06-19T01:54:12;11.50;;;9.60;;
24335;SDS011;33098;52.400;16.880;2023-06-19T01:56:39;10.50;;;8.80;;
24335;SDS011;33098;52.400;16.880;2023-06-19T01:59:06;12.70;;;9.50;;
24335;SDS011;33098;52.400;16.880;2023-06-19T02:01:32;10.70;;;9.40;;
24335;SDS011;33098;52.400;16.880;2023-06-19T02:04:01;10.30;;;9.10;;
24335;SDS011;33098;52.400;16.880;2023-06-19T02:06:29;9.40;;;8.50;;
24335;SDS011;33098;52.400;16.880;2023-06-19T02:08:56;10.30;;;9.10;;
24335;SDS011;33098;52.400;16.880;2023-06-19T02:11:22;12.10;;;9.40;;
24335;SDS011;33098;52.400;16.880;2023-06-19T02:13:49;10.70;;;9.40;;
24335;SDS011;33098;52.400;16.880;2023-06-19T02:16:15;16.60;;;9.60;;
24335;SDS011;33098;52.400;16.880;2023-06-19T02:18:42;10.40;;;9.30;;
24335;SDS011;33098;52.400;16.880;2023-06-19T02:21:08;12.10;;;9.90;;
24335;SDS011;33098;52.400;16.880;2023-06-19T02:23:35;14.20;;;10.00;;
24335;SDS011;33098;52.400;16.880;2023-06-19T02:26:01;11.00;;;9.80;;
24335;SDS011;33098;52.400;16.880;2023-06-19T02:28:28;12.40;;;9.50;;
24335;SDS011;33098;52.400;16.880;2023-06-19T02:30:54;10.90;;;9.40;;
24335;SDS011;33098;52.400;16.880;2023-06-19T02:33:21;11.70;;;9.60;;
24335;SDS011;33098;52.400;16.880;2023-06-19T02:35:48;10.60;;;9.20;;
24335;SDS011;33098;52.400;16.880;2023-06-19T02:38:14;10.60;;;9.50;;
24335;SDS011;33098;52.400;16.880;2023-06-19T02:40:41;12.00;;;9.40;;
24335;SDS011;33098;52.400;16.880;2023-06-19T02:43:07;11.00;;;9.60;;
24335;SDS011;33098;52.400;16.880;2023-06-19T02:45:34;12.80;;;9.60;;
24335;SDS011;33098;52.400;16.880;2023-06-19T02:48:02;11.30;;;10.10;;
24335;SDS011;33098;52.400;16.880;2023-06-19T02:50:29;12.10;;;10.20;;
24335;SDS011;33098;52.400;16.880;2023-06-19T02:52:57;10.40;;;9.40;;
24335;SDS011;33098;52.400;16.880;2023-06-19T02:55:24;10.80;;;9.70;;
24335;SDS011;33098;52.400;16.880;2023-06-19T02:57:50;11.50;;;9.50;;
24335;SDS011;33098;52.400;16.880;2023-06-19T03:00:17;12.60;;;10.00;;
24335;SDS011;33098;52.400;16.880;2023-06-19T03:02:44;11.90;;;9.80;;
24335;SDS011;33098;52.400;16.880;2023-06-19T03:05:11;11.30;;;9.40;;
24335;SDS011;33098;52.400;16.880;2023-06-19T03:07:42;11.50;;;9.80;;
24335;SDS011;33098;52.400;16.880;2023-06-19T03:10:09;12.80;;;9.50;;
24335;SDS011;33098;52.400;16.880;2023-06-19T03:12:35;12.20;;;9.70;;
24335;SDS011;33098;52.400;16.880;2023-06-19T03:15:02;12.00;;;9.70;;
24335;SDS011;33098;52.400;16.880;2023-06-19T03:17:30;13.40;;;10.30;;
24335;SDS011;33098;52.400;16.880;2023-06-19T03:19:56;12.70;;;10.30;;
24335;SDS011;33098;52.400;16.880;2023-06-19T03:22:23;12.40;;;9.70;;
24335;SDS011;33098;52.400;16.880;2023-06-19T03:24:51;14.30;;;10.00;;
24335;SDS011;33098;52.400;16.880;2023-06-19T03:27:20;11.70;;;10.20;;
24335;SDS011;33098;52.400;16.880;2023-06-19T03:29:47;12.20;;;10.20;;
24335;SDS011;33098;52.400;16.880;2023-06-19T03:32:18;12.60;;;10.60;;
24335;SDS011;33098;52.400;16.880;2023-06-19T03:34:45;11.80;;;10.00;;
24335;SDS011;33098;52.400;16.880;2023-06-19T03:37:12;16.20;;;10.50;;
24335;SDS011;33098;52.400;16.880;2023-06-19T03:39:39;12.70;;;10.50;;
24335;SDS011;33098;52.400;16.880;2023-06-19T03:42:08;13.30;;;10.70;;
24335;SDS011;33098;52.400;16.880;2023-06-19T03:44:35;15.90;;;11.20;;
24335;SDS011;33098;52.400;16.880;2023-06-19T03:47:01;15.50;;;11.30;;
24335;SDS011;33098;52.400;16.880;2023-06-19T03:49:28;16.40;;;11.90;;
24335;SDS011;33098;52.400;16.880;2023-06-19T03:51:55;15.80;;;12.40;;
24335;SDS011;33098;52.400;16.880;2023-06-19T03:54:22;14.40;;;11.00;;
24335;SDS011;33098;52.400;16.880;2023-06-19T03:56:49;15.20;;;12.30;;
24335;SDS011;33098;52.400;16.880;2023-06-19T03:59:15;14.70;;;11.80;;
24335;SDS011;33098;52.400;16.880;2023-06-19T04:01:42;14.90;;;12.60;;
24335;SDS011;33098;52.400;16.880;2023-06-19T04:04:09;14.70;;;12.00;;
24335;SDS011;33098;52.400;16.880;2023-06-19T04:06:36;19.20;;;13.20;;
24335;SDS011;33098;52.400;16.880;2023-06-19T04:09:03;17.40;;;13.50;;
24335;SDS011;33098;52.400;16.880;2023-06-19T04:11:31;17.90;;;14.40;;
24335;SDS011;33098;52.400;16.880;2023-06-19T04:13:58;15.80;;;14.10;;
24335;SDS011;33098;52.400;16.880;2023-06-19T04:16:24;21.30;;;18.40;;
24335;SDS011;33098;52.400;16.880;2023-06-19T04:18:51;19.50;;;17.40;;
24335;SDS011;33098;52.400;16.880;2023-06-19T04:21:17;18.20;;;16.30;;
24335;SDS011;33098;52.400;16.880;2023-06-19T04:23:44;21.60;;;18.30;;
24335;SDS011;33098;52.400;16.880;2023-06-19T04:26:11;21.50;;;18.40;;
24335;SDS011;33098;52.400;16.880;2023-06-19T04:28:39;19.80;;;17.40;;
24335;SDS011;33098;52.400;16.880;2023-06-19T04:31:06;19.10;;;17.00;;
24335;SDS011;33098;52.400;16.880;2023-06-19T04:33:32;20.60;;;18.50;;
24335;SDS011;33098;52.400;16.880;2023-06-19T04:35:59;21.00;;;17.60;;
24335;SDS011;33098;52.400;16.880;2023-06-19T04:38:25;19.50;;;17.40;;
24335;SDS011;33098;52.400;16.880;2023-06-19T04:40:52;22.70;;;18.20;;
24335;SDS011;33098;52.400;16.880;2023-06-19T04:43:19;21.90;;;19.70;;
24335;SDS011;33098;52.400;16.880;2023-06-19T04:45:46;24.50;;;18.40;;
24335;SDS011;33098;52.400;16.880;2023-06-19T04:48:12;20.60;;;18.40;;
24335;SDS011;33098;52.400;16.880;2023-06-19T04:50:38;23.30;;;19.70;;
24335;SDS011;33098;52.400;16.880;2023-06-19T04:53:05;20.70;;;18.20;;
24335;SDS011;33098;52.400;16.880;2023-06-19T04:55:32;19.60;;;17.40;;
24335;SDS011;33098;52.400;16.880;2023-06-19T04:57:58;24.30;;;20.10;;
24335;SDS011;33098;52.400;16.880;2023-06-19T05:00:25;23.40;;;19.00;;
24335;SDS011;33098;52.400;16.880;2023-06-19T05:02:52;21.60;;;18.00;;
24335;SDS011;33098;52.400;16.880;2023-06-19T05:05:19;24.60;;;19.90;;
24335;SDS011;33098;52.400;16.880;2023-06-19T05:07:46;25.00;;;20.40;;
24335;SDS011;33098;52.400;16.880;2023-06-19T05:10:13;25.70;;;19.50;;
24335;SDS011;33098;52.400;16.880;2023-06-19T05:12:39;24.80;;;19.60;;
24335;SDS011;33098;52.400;16.880;2023-06-19T05:15:06;22.60;;;20.00;;
24335;SDS011;33098;52.400;16.880;2023-06-19T05:17:33;23.60;;;19.40;;
24335;SDS011;33098;52.400;16.880;2023-06-19T05:19:59;21.00;;;17.80;;
24335;SDS011;33098;52.400;16.880;2023-06-19T05:22:26;24.80;;;18.20;;
24335;SDS011;33098;52.400;16.880;2023-06-19T05:24:53;23.80;;;19.00;;
24335;SDS011;33098;52.400;16.880;2023-06-19T05:27:19;21.50;;;18.00;;
24335;SDS011;33098;52.400;16.880;2023-06-19T05:29:46;21.60;;;18.40;;
24335;SDS011;33098;52.400;16.880;2023-06-19T05:32:12;21.70;;;17.60;;
24335;SDS011;33098;52.400;16.880;2023-06-19T05:34:39;21.90;;;16.80;;
24335;SDS011;33098;52.400;16.880;2023-06-19T05:37:05;19.00;;;16.20;;
24335;SDS011;33098;52.400;16.880;2023-06-19T05:39:32;20.00;;;15.60;;
24335;SDS011;33098;52.400;16.880;2023-06-19T05:41:58;19.60;;;15.90;;
24335;SDS011;33098;52.400;16.880;2023-06-19T05:44:25;16.60;;;14.00;;
24335;SDS011;33098;52.400;16.880;2023-06-19T05:46:52;15.70;;;14.00;;
24335;SDS011;33098;52.400;16.880;2023-06-19T05:49:18;21.20;;;14.60;;
24335;SDS011;33098;52.400;16.880;2023-06-19T05:51:44;17.60;;;14.40;;
24335;SDS011;33098;52.400;16.880;2023-06-19T05:54:11;16.50;;;14.10;;
24335;SDS011;33098;52.400;16.880;2023-06-19T05:56:37;15.10;;;13.10;;
24335;SDS011;33098;52.400;16.880;2023-06-19T05:59:04;16.00;;;13.50;;
24335;SDS011;33098;52.400;16.880;2023-06-19T06:01:31;15.20;;;13.60;;
24335;SDS011;33098;52.400;16.880;2023-06-19T06:03:58;14.50;;;13.10;;
24335;SDS011;33098;52.400;16.880;2023-06-19T06:06:24;15.80;;;13.60;;
24335;SDS011;33098;52.400;16.880;2023-06-19T06:08:51;13.90;;;12.40;;
24335;SDS011;33098;52.400;16.880;2023-06-19T06:11:18;13.50;;;12.10;;
24335;SDS011;33098;52.400;16.880;2023-06-19T06:13:45;14.20;;;12.70;;
24335;SDS011;33098;52.400;16.880;2023-06-19T06:16:11;15.40;;;12.70;;
24335;SDS011;33098;52.400;16.880;2023-06-19T06:18:38;13.20;;;11.60;;
24335;SDS011;33098;52.400;16.880;2023-06-19T06:21:04;13.10;;;9.90;;
24335;SDS011;33098;52.400;16.880;2023-06-19T06:23:31;12.40;;;10.10;;
24335;SDS011;33098;52.400;16.880;2023-06-19T06:25:58;12.80;;;10.40;;
24335;SDS011;33098;52.400;16.880;2023-06-19T06:28:28;11.00;;;9.90;;
24335;SDS011;33098;52.400;16.880;2023-06-19T06:30:55;11.60;;;9.70;;
24335;SDS011;33098;52.400;16.880;2023-06-19T06:33:22;10.40;;;9.40;;
24335;SDS011;33098;52.400;16.880;2023-06-19T06:35:49;11.00;;;8.60;;
24335;SDS011;33098;52.400;16.880;2023-06-19T06:38:15;9.00;;;8.10;;
24335;SDS011;33098;52.400;16.880;2023-06-19T06:40:42;9.80;;;8.60;;
24335;SDS011;33098;52.400;16.880;2023-06-19T06:43:09;9.90;;;7.70;;
24335;SDS011;33098;52.400;16.880;2023-06-19T06:45:35;11.40;;;8.10;;
24335;SDS011;33098;52.400;16.880;2023-06-19T06:48:04;8.00;;;7.20;;
24335;SDS011;33098;52.400;16.880;2023-06-19T06:50:33;8.60;;;7.50;;
24335;SDS011;33098;52.400;16.880;2023-06-19T06:53:00;9.50;;;8.00;;
24335;SDS011;33098;52.400;16.880;2023-06-19T06:55:26;7.70;;;6.70;;
24335;SDS011;33098;52.400;16.880;2023-06-19T06:57:53;7.10;;;6.50;;
24335;SDS011;33098;52.400;16.880;2023-06-19T07:00:20;7.90;;;7.00;;
24335;SDS011;33098;52.400;16.880;2023-06-19T07:02:46;8.00;;;7.30;;
24335;SDS011;33098;52.400;16.880;2023-06-19T07:05:16;6.20;;;5.60;;
24335;SDS011;33098;52.400;16.880;2023-06-19T07:07:43;7.10;;;5.00;;
24335;SDS011;33098;52.400;16.880;2023-06-19T07:10:10;5.80;;;4.80;;
24335;SDS011;33098;52.400;16.880;2023-06-19T07:12:43;6.10;;;5.40;;
24335;SDS011;33098;52.400;16.880;2023-06-19T07:15:14;5.50;;;5.00;;
24335;SDS011;33098;52.400;16.880;2023-06-19T07:17:41;6.60;;;5.10;;
24335;SDS011;33098;52.400;16.880;2023-06-19T07:20:07;6.00;;;5.10;;
24335;SDS011;33098;52.400;16.880;2023-06-19T07:22:34;5.80;;;5.30;;
24335;SDS011;33098;52.400;16.880;2023-06-19T07:25:01;6.70;;;5.10;;
24335;SDS011;33098;52.400;16.880;2023-06-19T07:27:30;5.80;;;5.30;;
24335;SDS011;33098;52.400;16.880;2023-06-19T07:29:56;5.90;;;5.30;;
24335;SDS011;33098;52.400;16.880;2023-06-19T07:32:23;8.60;;;5.20;;
24335;SDS011;33098;52.400;16.880;2023-06-19T07:34:49;7.00;;;5.50;;
24335;SDS011;33098;52.400;16.880;2023-06-19T07:37:16;6.00;;;5.40;;
24335;SDS011;33098;52.400;16.880;2023-06-19T07:39:47;6.20;;;5.60;;
24335;SDS011;33098;52.400;16.880;2023-06-19T07:42:16;6.00;;;5.30;;
24335;SDS011;33098;52.400;16.880;2023-06-19T07:44:43;8.20;;;5.40;;
24335;SDS011;33098;52.400;16.880;2023-06-19T07:47:11;6.70;;;5.70;;
24335;SDS011;33098;52.400;16.880;2023-06-19T07:49:38;6.20;;;5.60;;
24335;SDS011;33098;52.400;16.880;2023-06-19T07:52:05;6.60;;;5.40;;
24335;SDS011;33098;52.400;16.880;2023-06-19T07:54:33;6.40;;;5.20;;
24335;SDS011;33098;52.400;16.880;2023-06-19T07:57:00;5.80;;;5.20;;
24335;SDS011;33098;52.400;16.880;2023-06-19T07:59:27;8.30;;;5.70;;
24335;SDS011;33098;52.400;16.880;2023-06-19T08:01:53;6.70;;;5.30;;
24335;SDS011;33098;52.400;16.880;2023-06-19T08:04:20;6.30;;;5.70;;
24335;SDS011;33098;52.400;16.880;2023-06-19T08:06:47;8.60;;;5.70;;
24335;SDS011;33098;52.400;16.880;2023-06-19T08:09:13;8.40;;;5.70;;
24335;SDS011;33098;52.400;16.880;2023-06-19T08:11:40;8.40;;;5.80;;
24335;SDS011;33098;52.400;16.880;2023-06-19T08:14:06;6.40;;;5.30;;
24335;SDS011;33098;52.400;16.880;2023-06-19T08:16:33;6.00;;;5.50;;
24335;SDS011;33098;52.400;16.880;2023-06-19T08:18:59;7.00;;;6.00;;
24335;SDS011;33098;52.400;16.880;2023-06-19T08:21:26;6.20;;;5.70;;
24335;SDS011;33098;52.400;16.880;2023-06-19T08:23:52;6.10;;;5.50;;
24335;SDS011;33098;52.400;16.880;2023-06-19T08:26:19;6.50;;;5.50;;
24335;SDS011;33098;52.400;16.880;2023-06-19T08:28:45;6.70;;;6.00;;
24335;SDS011;33098;52.400;16.880;2023-06-19T08:31:12;7.00;;;5.80;;
24335;SDS011;33098;52.400;16.880;2023-06-19T08:33:38;6.80;;;6.20;;
24335;SDS011;33098;52.400;16.880;2023-06-19T08:36:05;6.30;;;5.70;;
24335;SDS011;33098;52.400;16.880;2023-06-19T08:38:32;7.20;;;6.40;;
24335;SDS011;33098;52.400;16.880;2023-06-19T08:40:58;6.60;;;6.00;;
24335;SDS011;33098;52.400;16.880;2023-06-19T08:43:25;6.80;;;6.10;;
24335;SDS011;33098;52.400;16.880;2023-06-19T08:45:54;6.80;;;6.20;;
24335;SDS011;33098;52.400;16.880;2023-06-19T08:48:27;8.60;;;6.20;;
24335;SDS011;33098;52.400;16.880;2023-06-19T08:50:54;7.30;;;6.60;;
24335;SDS011;33098;52.400;16.880;2023-06-19T08:53:21;6.80;;;6.20;;
24335;SDS011;33098;52.400;16.880;2023-06-19T08:55:49;7.10;;;6.40;;
24335;SDS011;33098;52.400;16.880;2023-06-19T08:58:21;7.10;;;6.10;;
24335;SDS011;33098;52.400;16.880;2023-06-19T09:00:49;7.30;;;5.80;;
24335;SDS011;33098;52.400;16.880;2023-06-19T09:03:19;6.60;;;6.00;;
24335;SDS011;33098;52.400;16.880;2023-06-19T09:05:50;6.80;;;6.30;;
24335;SDS011;33098;52.400;16.880;2023-06-19T09:08:20;7.50;;;6.30;;
24335;SDS011;33098;52.400;16.880;2023-06-19T09:10:54;6.30;;;5.80;;
24335;SDS011;33098;52.400;16.880;2023-06-19T09:13:22;7.30;;;6.20;;
24335;SDS011;33098;52.400;16.880;2023-06-19T09:15:56;7.20;;;6.50;;
24335;SDS011;33098;52.400;16.880;2023-06-19T09:18:25;8.70;;;6.00;;
24335;SDS011;33098;52.400;16.880;2023-06-19T09:20:52;7.20;;;6.40;;
24335;SDS011;33098;52.400;16.880;2023-06-19T09:23:20;6.70;;;6.10;;
24335;SDS011;33098;52.400;16.880;2023-06-19T09:25:50;6.90;;;6.20;;
24335;SDS011;33098;52.400;16.880;2023-06-19T09:28:18;6.70;;;6.10;;
24335;SDS011;33098;52.400;16.880;2023-06-19T09:33:30;8.10;;;6.00;;
24335;SDS011;33098;52.400;16.880;2023-06-19T09:36:00;7.10;;;5.90;;
24335;SDS011;33098;52.400;16.880;2023-06-19T09:38:30;6.90;;;6.20;;
24335;SDS011;33098;52.400;16.880;2023-06-19T09:41:00;6.50;;;5.80;;
24335;SDS011;33098;52.400;16.880;2023-06-19T09:46:04;6.80;;;6.00;;
24335;SDS011;33098;52.400;16.880;2023-06-19T09:48:31;6.70;;;6.10;;
24335;SDS011;33098;52.400;16.880;2023-06-19T09:51:12;6.50;;;5.70;;
24335;SDS011;33098;52.400;16.880;2023-06-19T09:53:51;8.30;;;6.20;;
24335;SDS011;33098;52.400;16.880;2023-06-19T09:56:17;7.70;;;6.10;;
24335;SDS011;33098;52.400;16.880;2023-06-19T09:58:52;6.40;;;5.70;;
24335;SDS011;33098;52.400;16.880;2023-06-19T10:01:21;6.90;;;6.30;;
24335;SDS011;33098;52.400;16.880;2023-06-19T10:03:49;6.60;;;6.00;;
24335;SDS011;33098;52.400;16.880;2023-06-19T10:06:16;7.40;;;6.50;;
24335;SDS011;33098;52.400;16.880;2023-06-19T10:08:45;6.80;;;6.20;;
24335;SDS011;33098;52.400;16.880;2023-06-19T10:11:12;7.00;;;5.90;;
24335;SDS011;33098;52.400;16.880;2023-06-19T10:13:42;8.50;;;6.40;;
24335;SDS011;33098;52.400;16.880;2023-06-19T10:16:19;8.40;;;6.10;;
24335;SDS011;33098;52.400;16.880;2023-06-19T10:18:47;6.50;;;5.70;;
24335;SDS011;33098;52.400;16.880;2023-06-19T10:21:18;6.40;;;5.80;;
24335;SDS011;33098;52.400;16.880;2023-06-19T10:23:56;6.20;;;5.60;;
24335;SDS011;33098;52.400;16.880;2023-06-19T10:26:31;7.10;;;5.80;;
24335;SDS011;33098;52.400;16.880;2023-06-19T10:29:01;6.30;;;5.60;;
24335;SDS011;33098;52.400;16.880;2023-06-19T10:31:39;6.20;;;5.40;;
24335;SDS011;33098;52.400;16.880;2023-06-19T10:34:05;6.70;;;6.00;;
24335;SDS011;33098;52.400;16.880;2023-06-19T10:36:32;6.40;;;5.80;;
24335;SDS011;33098;52.400;16.880;2023-06-19T10:38:59;6.60;;;5.90;;
24335;SDS011;33098;52.400;16.880;2023-06-19T10:41:26;5.90;;;5.40;;
24335;SDS011;33098;52.400;16.880;2023-06-19T10:43:57;7.60;;;6.40;;
24335;SDS011;33098;52.400;16.880;2023-06-19T10:46:29;6.80;;;5.80;;
24335;SDS011;33098;52.400;16.880;2023-06-19T10:48:57;8.10;;;6.00;;
24335;SDS011;33098;52.400;16.880;2023-06-19T10:51:27;5.80;;;5.30;;
24335;SDS011;33098;52.400;16.880;2023-06-19T10:53:55;6.80;;;5.80;;
24335;SDS011;33098;52.400;16.880;2023-06-19T10:56:22;7.00;;;6.00;;
24335;SDS011;33098;52.400;16.880;2023-06-19T10:58:56;7.10;;;5.90;;
24335;SDS011;33098;52.400;16.880;2023-06-19T11:01:35;6.10;;;5.50;;
24335;SDS011;33098;52.400;16.880;2023-06-19T11:04:04;7.10;;;6.00;;
24335;SDS011;33098;52.400;16.880;2023-06-19T11:06:35;8.20;;;5.90;;
24335;SDS011;33098;52.400;16.880;2023-06-19T11:09:03;6.70;;;6.10;;
24335;SDS011;33098;52.400;16.880;2023-06-19T11:11:41;7.40;;;5.90;;
24335;SDS011;33098;52.400;16.880;2023-06-19T11:14:10;7.40;;;6.20;;
24335;SDS011;33098;52.400;16.880;2023-06-19T11:16:41;6.40;;;5.80;;
24335;SDS011;33098;52.400;16.880;2023-06-19T11:19:16;7.90;;;5.50;;
24335;SDS011;33098;52.400;16.880;2023-06-19T11:21:48;7.10;;;6.00;;
24335;SDS011;33098;52.400;16.880;2023-06-19T11:24:16;6.50;;;5.70;;
24335;SDS011;33098;52.400;16.880;2023-06-19T11:26:44;6.30;;;5.60;;
24335;SDS011;33098;52.400;16.880;2023-06-19T11:31:47;6.30;;;5.70;;
24335;SDS011;33098;52.400;16.880;2023-06-19T11:34:15;6.60;;;5.50;;
24335;SDS011;33098;52.400;16.880;2023-06-19T11:36:43;7.20;;;5.50;;
24335;SDS011;33098;52.400;16.880;2023-06-19T11:39:14;6.20;;;5.20;;
24335;SDS011;33098;52.400;16.880;2023-06-19T11:41:45;5.70;;;5.20;;
24335;SDS011;33098;52.400;16.880;2023-06-19T11:44:12;5.90;;;5.30;;
24335;SDS011;33098;52.400;16.880;2023-06-19T11:46:38;6.90;;;5.10;;
24335;SDS011;33098;52.400;16.880;2023-06-19T11:49:09;6.00;;;5.20;;
24335;SDS011;33098;52.400;16.880;2023-06-19T11:51:36;7.00;;;5.30;;
24335;SDS011;33098;52.400;16.880;2023-06-19T11:54:04;6.20;;;5.50;;
24335;SDS011;33098;52.400;16.880;2023-06-19T11:56:34;5.40;;;4.70;;
24335;SDS011;33098;52.400;16.880;2023-06-19T11:59:01;6.50;;;5.10;;
24335;SDS011;33098;52.400;16.880;2023-06-19T12:01:32;6.80;;;4.90;;
24335;SDS011;33098;52.400;16.880;2023-06-19T12:04:00;4.80;;;4.40;;
24335;SDS011;33098;52.400;16.880;2023-06-19T12:06:28;6.50;;;5.30;;
24335;SDS011;33098;52.400;16.880;2023-06-19T12:08:55;5.90;;;5.30;;
24335;SDS011;33098;52.400;16.880;2023-06-19T12:11:22;6.80;;;5.20;;
24335;SDS011;33098;52.400;16.880;2023-06-19T12:13:48;5.60;;;5.10;;
24335;SDS011;33098;52.400;16.880;2023-06-19T12:16:15;6.40;;;5.10;;
24335;SDS011;33098;52.400;16.880;2023-06-19T12:18:41;7.00;;;5.40;;
24335;SDS011;33098;52.400;16.880;2023-06-19T12:21:08;7.00;;;5.80;;
24335;SDS011;33098;52.400;16.880;2023-06-19T12:23:35;5.30;;;4.80;;
24335;SDS011;33098;52.400;16.880;2023-06-19T12:26:01;6.90;;;5.10;;
24335;SDS011;33098;52.400;16.880;2023-06-19T12:28:28;5.10;;;4.70;;
24335;SDS011;33098;52.400;16.880;2023-06-19T12:30:56;5.20;;;4.80;;
24335;SDS011;33098;52.400;16.880;2023-06-19T12:33:24;5.40;;;4.90;;
24335;SDS011;33098;52.400;16.880;2023-06-19T12:35:51;6.00;;;5.40;;
24335;SDS011;33098;52.400;16.880;2023-06-19T12:38:17;6.10;;;5.30;;
24335;SDS011;33098;52.400;16.880;2023-06-19T12:40:44;6.70;;;5.60;;
24335;SDS011;33098;52.400;16.880;2023-06-19T12:43:11;6.00;;;5.30;;
24335;SDS011;33098;52.400;16.880;2023-06-19T12:45:37;6.10;;;5.50;;
24335;SDS011;33098;52.400;16.880;2023-06-19T12:48:04;5.50;;;5.10;;
24335;SDS011;33098;52.400;16.880;2023-06-19T12:50:31;5.90;;;5.40;;
24335;SDS011;33098;52.400;16.880;2023-06-19T12:52:57;6.00;;;5.40;;
24335;SDS011;33098;52.400;16.880;2023-06-19T12:55:24;7.60;;;5.60;;
24335;SDS011;33098;52.400;16.880;2023-06-19T12:57:51;5.70;;;5.20;;
24335;SDS011;33098;52.400;16.880;2023-06-19T13:00:17;6.10;;;5.50;;
24335;SDS011;33098;52.400;16.880;2023-06-19T13:02:44;6.40;;;5.80;;
24335;SDS011;33098;52.400;16.880;2023-06-19T13:05:13;6.20;;;5.60;;
24335;SDS011;33098;52.400;16.880;2023-06-19T13:07:39;6.80;;;5.90;;
24335;SDS011;33098;52.400;16.880;2023-06-19T13:10:06;7.60;;;5.80;;
24335;SDS011;33098;52.400;16.880;2023-06-19T13:12:33;6.40;;;5.50;;
24335;SDS011;33098;52.400;16.880;2023-06-19T13:15:00;5.70;;;5.20;;
24335;SDS011;33098;52.400;16.880;2023-06-19T13:17:26;6.20;;;5.70;;
24335;SDS011;33098;52.400;16.880;2023-06-19T13:19:53;6.20;;;5.50;;
24335;SDS011;33098;52.400;16.880;2023-06-19T13:22:19;6.00;;;5.40;;
24335;SDS011;33098;52.400;16.880;2023-06-19T13:24:46;6.70;;;5.40;;
24335;SDS011;33098;52.400;16.880;2023-06-19T13:27:12;7.40;;;5.70;;
24335;SDS011;33098;52.400;16.880;2023-06-19T13:29:39;6.40;;;5.80;;
24335;SDS011;33098;52.400;16.880;2023-06-19T13:32:06;6.60;;;5.60;;
24335;SDS011;33098;52.400;16.880;2023-06-19T13:34:33;6.20;;;5.60;;
24335;SDS011;33098;52.400;16.880;2023-06-19T13:37:00;7.00;;;5.50;;
24335;SDS011;33098;52.400;16.880;2023-06-19T13:39:26;7.20;;;5.60;;
24335;SDS011;33098;52.400;16.880;2023-06-19T13:41:53;8.30;;;5.00;;
24335;SDS011;33098;52.400;16.880;2023-06-19T13:44:19;5.40;;;4.90;;
24335;SDS011;33098;52.400;16.880;2023-06-19T13:46:46;5.80;;;5.30;;
24335;SDS011;33098;52.400;16.880;2023-06-19T13:49:13;5.70;;;5.20;;
24335;SDS011;33098;52.400;16.880;2023-06-19T13:51:40;6.20;;;5.70;;
24335;SDS011;33098;52.400;16.880;2023-06-19T13:54:07;6.00;;;5.50;;
24335;SDS011;33098;52.400;16.880;2023-06-19T13:56:34;5.60;;;5.10;;
24335;SDS011;33098;52.400;16.880;2023-06-19T13:59:00;6.10;;;4.90;;
24335;SDS011;33098;52.400;16.880;2023-06-19T14:01:27;7.30;;;5.60;;
24335;SDS011;33098;52.400;16.880;2023-06-19T14:03:53;5.80;;;5.20;;
24335;SDS011;33098;52.400;16.880;2023-06-19T14:06:20;5.70;;;5.30;;
24335;SDS011;33098;52.400;16.880;2023-06-19T14:08:46;6.00;;;5.50;;
24335;SDS011;33098;52.400;16.880;2023-06-19T14:11:13;6.00;;;5.40;;
24335;SDS011;33098;52.400;16.880;2023-06-19T14:13:40;6.00;;;5.50;;
24335;SDS011;33098;52.400;16.880;2023-06-19T14:16:06;6.20;;;5.60;;
24335;SDS011;33098;52.400;16.880;2023-06-19T14:18:33;5.50;;;5.10;;
24335;SDS011;33098;52.400;16.880;2023-06-19T14:21:03;6.40;;;5.60;;
24335;SDS011;33098;52.400;16.880;2023-06-19T14:23:29;7.20;;;5.80;;
24335;SDS011;33098;52.400;16.880;2023-06-19T14:25:57;6.50;;;5.80;;
24335;SDS011;33098;52.400;16.880;2023-06-19T14:28:24;6.10;;;5.50;;
24335;SDS011;33098;52.400;16.880;2023-06-19T14:30:50;6.20;;;5.70;;
24335;SDS011;33098;52.400;16.880;2023-06-19T14:33:17;5.70;;;5.20;;
24335;SDS011;33098;52.400;16.880;2023-06-19T14:35:43;6.00;;;5.40;;
24335;SDS011;33098;52.400;16.880;2023-06-19T14:38:12;5.60;;;5.00;;
24335;SDS011;33098;52.400;16.880;2023-06-19T14:40:40;5.80;;;5.20;;
24335;SDS011;33098;52.400;16.880;2023-06-19T14:43:07;5.90;;;5.40;;